Skip Navigation Links
NOAA logo - Click to go to the NOAA homepage
NOAA's National Weather Service
Alaska Aviation Weather Unit
  NWS logo - Click to go to the NWS homepage
Left Navbar Graphic     17 AKDT = 01 GMT

   
NOAA is celebrating 200 years of science, service, and stewardship. Visit the NOAA 200th celebration Web site to learn more.
USA.gov is the U.S. Government's official Web portal to all Federal, state and local government Web resources and services.
Facebook
NWS on Facebook

Important Change Regarding the AAWU Web Presence

 

Over the last several months, the AAWU has been working to navigate its webpages to a nationally supported server. Security, as well as other needs, have necessitated the change.  In the process, we have made an effort to enhance the functionality of our website, as well as some of our products. As of June 27, 2017, aawu.arh.noaa.gov will be discontinued. The new AAWU web address is weather.gov/aawu. It is now live and will run in-parallel with the old site until it is discontinued. Please send any feedback or questions regarding the new webpages to nws.ar.aawu.webauthors@noaa.gov.  Thank you for your patience during this time of transition.
AAWU Home :: Display TAF Add Bookmark
TAF PAMC 252334Z 2600/2624 VRB03KT P6SM VCTS SCT050CB SCT100
     FM260500 VRB03KT P6SM FEW050 SCT150
     FM262200 19007KT P6SM VCTS SCT070CB BKN120=

METAR PAMC 251953Z VRB04KT 10SM FEW050 FEW100 SCT200 21/08 A2996 RMK AO2 SLP148 T02060078 $= METAR PAMC 252053Z VRB03KT 10SM FEW050 21/08 A2994 RMK SLP142 T02110078 58018 $ VIA AUTODIAL= METAR PAMC 252153Z 00000KT 10SM SCT050 BKN100 21/06 A2992 RMK AO2 SLP134 T02110061 $= METAR PAMC 252253Z 00000KT 10SM SCT050 SCT100 22/05 A2990 RMK AO2 SLP127 SHRA VCTY SW VIRGA DSNT NW T02220050 $= METAR PAMC 252353Z COR 32009KT 10SM FEW050 23/08 A2988 RMK AO2 VIRGA DSNT SW-W 10233 20178 57021 $=
 Alaska TAF Map

NOAA's National Weather Service
Alaska Aviation Weather Unit
6930 Sand Lake Road
Anchorage, AK 99502-1845
Disclaimer
Credits
Glossary
Privacy Policy
About Us
Career Opportunities
Contact AAWU Internet Services Site last modified: April, 17th 2012